sensor_id;sensor_type;location;lat;lon;timestamp;pressure;altitude;pressure_sealevel;temperature;humidity
3968;BME280;9221;42.646;23.380;2024-03-23T00:53:44;94550.13;;;5.51;66.03
3968;BME280;9221;42.646;23.380;2024-03-23T00:56:10;94549.47;;;5.37;66.62
3968;BME280;9221;42.646;23.380;2024-03-23T00:58:35;94549.22;;;5.40;66.44
3968;BME280;9221;42.646;23.380;2024-03-23T01:01:01;94497.50;;;4.99;66.65
3968;BME280;9221;42.646;23.380;2024-03-23T01:03:29;94538.75;;;5.06;67.36
3968;BME280;9221;42.646;23.380;2024-03-23T01:05:54;94535.66;;;5.01;67.61
3968;BME280;9221;42.646;23.380;2024-03-23T01:08:20;94538.88;;;5.05;67.30
3968;BME280;9221;42.646;23.380;2024-03-23T01:10:59;94535.91;;;4.98;67.68
3968;BME280;9221;42.646;23.380;2024-03-23T01:13:25;94533.53;;;4.95;67.18
3968;BME280;9221;42.646;23.380;2024-03-23T01:15:51;94534.25;;;5.08;66.97
3968;BME280;9221;42.646;23.380;2024-03-23T01:18:17;94531.16;;;5.03;66.86
3968;BME280;9221;42.646;23.380;2024-03-23T01:20:43;94537.06;;;4.94;67.07
3968;BME280;9221;42.646;23.380;2024-03-23T01:23:08;94533.53;;;4.95;66.79
3968;BME280;9221;42.646;23.380;2024-03-23T01:25:34;94533.03;;;5.01;66.53
3968;BME280;9221;42.646;23.380;2024-03-23T01:27:59;94528.75;;;4.89;65.92
3968;BME280;9221;42.646;23.380;2024-03-23T01:30:25;94537.53;;;4.88;66.57
3968;BME280;9221;42.646;23.380;2024-03-23T01:32:50;94571.75;;;4.85;67.30
3968;BME280;9221;42.646;23.380;2024-03-23T01:35:16;94528.88;;;4.76;67.55
3968;BME280;9221;42.646;23.380;2024-03-23T01:37:41;94532.75;;;4.59;68.08
3968;BME280;9221;42.646;23.380;2024-03-23T01:40:07;94541.59;;;4.45;69.09
3968;BME280;9221;42.646;23.380;2024-03-23T01:42:33;94534.13;;;4.40;69.57
3968;BME280;9221;42.646;23.380;2024-03-23T01:44:58;94509.84;;;4.16;70.21
3968;BME280;9221;42.646;23.380;2024-03-23T01:47:24;94523.16;;;4.24;70.68
3968;BME280;9221;42.646;23.380;2024-03-23T01:49:49;94527.38;;;4.14;71.55
3968;BME280;9221;42.646;23.380;2024-03-23T01:52:15;94537.31;;;4.09;71.95
3968;BME280;9221;42.646;23.380;2024-03-23T01:54:40;94541.31;;;4.01;72.04
3968;BME280;9221;42.646;23.380;2024-03-23T01:57:06;94533.25;;;4.04;72.28
3968;BME280;9221;42.646;23.380;2024-03-23T01:59:32;94544.78;;;4.02;72.57
3968;BME280;9221;42.646;23.380;2024-03-23T02:01:58;94537.66;;;4.04;72.37
3968;BME280;9221;42.646;23.380;2024-03-23T02:04:23;94539.50;;;4.15;72.56
3968;BME280;9221;42.646;23.380;2024-03-23T02:06:48;94546.00;;;4.09;72.27
3968;BME280;9221;42.646;23.380;2024-03-23T02:09:14;94545.84;;;3.99;72.17
3968;BME280;9221;42.646;23.380;2024-03-23T02:11:40;94522.78;;;3.93;72.00
3968;BME280;9221;42.646;23.380;2024-03-23T02:14:06;94540.88;;;4.07;71.56
3968;BME280;9221;42.646;23.380;2024-03-23T02:16:33;94536.59;;;4.06;72.26
3968;BME280;9221;42.646;23.380;2024-03-23T02:18:58;94536.34;;;3.98;72.78
3968;BME280;9221;42.646;23.380;2024-03-23T02:21:24;94535.22;;;3.89;73.05
3968;BME280;9221;42.646;23.380;2024-03-23T02:23:49;94542.09;;;3.90;73.75
3968;BME280;9221;42.646;23.380;2024-03-23T02:26:15;94551.72;;;3.90;73.71
3968;BME280;9221;42.646;23.380;2024-03-23T02:28:42;94564.25;;;3.85;73.92
3968;BME280;9221;42.646;23.380;2024-03-23T02:31:07;94529.56;;;3.71;74.59
3968;BME280;9221;42.646;23.380;2024-03-23T02:33:33;94544.50;;;3.69;74.92
3968;BME280;9221;42.646;23.380;2024-03-23T02:35:59;94547.00;;;3.58;75.19
3968;BME280;9221;42.646;23.380;2024-03-23T02:38:25;94542.03;;;3.55;75.59
3968;BME280;9221;42.646;23.380;2024-03-23T02:40:50;94540.16;;;3.57;75.28
3968;BME280;9221;42.646;23.380;2024-03-23T02:43:16;94536.09;;;3.53;75.84
3968;BME280;9221;42.646;23.380;2024-03-23T02:45:41;94530.78;;;3.42;74.51
3968;BME280;9221;42.646;23.380;2024-03-23T02:48:07;94545.94;;;3.73;73.82
3968;BME280;9221;42.646;23.380;2024-03-23T02:50:32;94538.00;;;3.75;73.04
3968;BME280;9221;42.646;23.380;2024-03-23T02:52:58;94533.59;;;3.76;72.70
3968;BME280;9221;42.646;23.380;2024-03-23T02:55:24;94533.59;;;3.76;72.59
3968;BME280;9221;42.646;23.380;2024-03-23T02:57:49;94536.94;;;3.78;71.61
3968;BME280;9221;42.646;23.380;2024-03-23T03:00:15;94527.97;;;3.82;71.61
3968;BME280;9221;42.646;23.380;2024-03-23T03:02:41;94537.78;;;4.02;70.54
3968;BME280;9221;42.646;23.380;2024-03-23T03:05:06;94531.66;;;4.15;69.85
3968;BME280;9221;42.646;23.380;2024-03-23T03:07:34;94529.44;;;4.21;69.69
3968;BME280;9221;42.646;23.380;2024-03-23T03:09:59;94535.47;;;4.22;68.91
3968;BME280;9221;42.646;23.380;2024-03-23T03:12:25;94537.38;;;4.20;68.70
3968;BME280;9221;42.646;23.380;2024-03-23T03:14:50;94541.63;;;4.21;68.14
3968;BME280;9221;42.646;23.380;2024-03-23T03:17:16;94536.91;;;4.26;68.11
3968;BME280;9221;42.646;23.380;2024-03-23T03:19:42;94552.09;;;3.97;68.24
3968;BME280;9221;42.646;23.380;2024-03-23T03:22:07;94520.41;;;3.90;69.17
3968;BME280;9221;42.646;23.380;2024-03-23T03:24:32;94536.75;;;4.16;68.23
3968;BME280;9221;42.646;23.380;2024-03-23T03:26:58;94541.44;;;4.24;67.68
3968;BME280;9221;42.646;23.380;2024-03-23T03:29:24;94546.81;;;4.10;67.05
3968;BME280;9221;42.646;23.380;2024-03-23T03:31:49;94530.47;;;4.07;67.01
3968;BME280;9221;42.646;23.380;2024-03-23T03:34:15;94539.22;;;4.06;66.89
3968;BME280;9221;42.646;23.380;2024-03-23T03:36:41;94540.88;;;4.07;66.91
3968;BME280;9221;42.646;23.380;2024-03-23T03:39:06;94542.13;;;4.26;66.14
3968;BME280;9221;42.646;23.380;2024-03-23T03:41:32;94540.59;;;4.23;66.02
3968;BME280;9221;42.646;23.380;2024-03-23T03:43:58;94536.91;;;4.26;65.47
3968;BME280;9221;42.646;23.380;2024-03-23T03:46:28;94550.97;;;4.12;65.74
3968;BME280;9221;42.646;23.380;2024-03-23T03:48:56;94541.44;;;4.24;65.69
3968;BME280;9221;42.646;23.380;2024-03-23T03:51:22;94516.72;;;4.17;65.80
3968;BME280;9221;42.646;23.380;2024-03-23T03:53:47;94539.50;;;4.15;66.53
3968;BME280;9221;42.646;23.380;2024-03-23T03:56:13;94538.75;;;4.13;66.77
3968;BME280;9221;42.646;23.380;2024-03-23T03:58:38;94539.38;;;3.92;67.99
3968;BME280;9221;42.646;23.380;2024-03-23T04:01:05;94545.47;;;3.80;68.71
3968;BME280;9221;42.646;23.380;2024-03-23T04:03:30;94535.41;;;3.62;69.53
3968;BME280;9221;42.646;23.380;2024-03-23T04:05:56;94557.25;;;3.61;70.21
3968;BME280;9221;42.646;23.380;2024-03-23T04:08:21;94547.47;;;3.52;71.02
3968;BME280;9221;42.646;23.380;2024-03-23T04:10:47;94531.63;;;3.42;71.98
3968;BME280;9221;42.646;23.380;2024-03-23T04:13:13;94529.78;;;3.31;71.26
3968;BME280;9221;42.646;23.380;2024-03-23T04:15:39;94541.84;;;3.45;71.39
3968;BME280;9221;42.646;23.380;2024-03-23T04:18:05;94526.59;;;3.15;72.40
3968;BME280;9221;42.646;23.380;2024-03-23T04:20:30;94537.22;;;3.12;72.64
3968;BME280;9221;42.646;23.380;2024-03-23T04:22:57;94557.75;;;3.16;72.69
3968;BME280;9221;42.646;23.380;2024-03-23T04:25:23;94554.50;;;3.13;73.36
3968;BME280;9221;42.646;23.380;2024-03-23T04:27:48;94547.34;;;3.03;73.57
3968;BME280;9221;42.646;23.380;2024-03-23T04:30:14;94553.38;;;3.04;73.95
3968;BME280;9221;42.646;23.380;2024-03-23T04:32:40;94548.16;;;3.04;74.44
3968;BME280;9221;42.646;23.380;2024-03-23T04:35:07;94552.97;;;2.97;75.35
3968;BME280;9221;42.646;23.380;2024-03-23T04:37:38;94579.94;;;2.96;75.55
3968;BME280;9221;42.646;23.380;2024-03-23T04:40:06;94560.88;;;2.96;75.47
3968;BME280;9221;42.646;23.380;2024-03-23T04:42:33;94550.56;;;2.94;75.62
3968;BME280;9221;42.646;23.380;2024-03-23T04:44:59;94547.44;;;2.89;75.85
3968;BME280;9221;42.646;23.380;2024-03-23T04:47:24;94553.59;;;3.01;75.51
3968;BME280;9221;42.646;23.380;2024-03-23T04:49:50;94561.09;;;3.05;75.66
3968;BME280;9221;42.646;23.380;2024-03-23T04:52:18;94541.28;;;3.03;75.56
3968;BME280;9221;42.646;23.380;2024-03-23T04:54:44;94567.84;;;3.21;74.99
3968;BME280;9221;42.646;23.380;2024-03-23T04:57:10;94567.53;;;3.26;75.11
3968;BME280;9221;42.646;23.380;2024-03-23T04:59:36;94569.28;;;3.25;74.70
3968;BME280;9221;42.646;23.380;2024-03-23T05:02:01;94576.81;;;3.17;75.25
3968;BME280;9221;42.646;23.380;2024-03-23T05:04:28;94570.16;;;3.00;75.98
3968;BME280;9221;42.646;23.380;2024-03-23T05:06:53;94558.59;;;3.04;75.96
3968;BME280;9221;42.646;23.380;2024-03-23T05:09:19;94567.75;;;3.10;76.08
3968;BME280;9221;42.646;23.380;2024-03-23T05:11:45;94563.06;;;3.15;76.21
3968;BME280;9221;42.646;23.380;2024-03-23T05:14:12;94547.53;;;3.13;75.38
3968;BME280;9221;42.646;23.380;2024-03-23T05:16:38;94567.66;;;3.24;75.91
3968;BME280;9221;42.646;23.380;2024-03-23T05:19:04;94561.69;;;3.22;75.93
3968;BME280;9221;42.646;23.380;2024-03-23T05:21:29;94564.81;;;3.27;76.50
3968;BME280;9221;42.646;23.380;2024-03-23T05:23:55;94563.22;;;3.37;76.31
3968;BME280;9221;42.646;23.380;2024-03-23T05:26:22;94561.28;;;3.65;75.27
3968;BME280;9221;42.646;23.380;2024-03-23T05:28:47;94519.94;;;3.48;74.35
3968;BME280;9221;42.646;23.380;2024-03-23T05:31:23;94519.13;;;3.47;73.92
3968;BME280;9221;42.646;23.380;2024-03-23T05:33:48;94556.13;;;3.77;73.70
3968;BME280;9221;42.646;23.380;2024-03-23T05:36:14;94551.16;;;3.98;73.32
3968;BME280;9221;42.646;23.380;2024-03-23T05:38:39;94556.47;;;4.20;72.10
3968;BME280;9221;42.646;23.380;2024-03-23T05:41:05;94553.25;;;4.17;71.67
3968;BME280;9221;42.646;23.380;2024-03-23T05:43:30;94557.59;;;4.29;71.81
3968;BME280;9221;42.646;23.380;2024-03-23T05:45:57;94559.06;;;4.45;71.15
3968;BME280;9221;42.646;23.380;2024-03-23T05:48:22;94550.56;;;4.65;70.69
3968;BME280;9221;42.646;23.380;2024-03-23T05:50:51;94552.16;;;4.90;69.76
3968;BME280;9221;42.646;23.380;2024-03-23T05:53:17;94555.13;;;4.86;70.01
3968;BME280;9221;42.646;23.380;2024-03-23T05:55:43;94516.91;;;4.38;70.71
3968;BME280;9221;42.646;23.380;2024-03-23T05:58:09;94555.78;;;4.54;71.48
3968;BME280;9221;42.646;23.380;2024-03-23T06:00:35;94551.75;;;4.61;71.66
3968;BME280;9221;42.646;23.380;2024-03-23T06:03:01;94522.53;;;4.56;71.15
3968;BME280;9221;42.646;23.380;2024-03-23T06:05:26;94562.97;;;4.97;70.83
3968;BME280;9221;42.646;23.380;2024-03-23T06:07:53;94541.59;;;5.03;70.36
3968;BME280;9221;42.646;23.380;2024-03-23T06:10:18;94553.25;;;5.11;69.56
3968;BME280;9221;42.646;23.380;2024-03-23T06:12:46;94555.84;;;5.22;69.50
3968;BME280;9221;42.646;23.380;2024-03-23T06:15:11;94551.09;;;5.38;68.83
3968;BME280;9221;42.646;23.380;2024-03-23T06:17:37;94539.00;;;5.37;67.86
3968;BME280;9221;42.646;23.380;2024-03-23T06:20:03;94545.50;;;5.54;67.73
3968;BME280;9221;42.646;23.380;2024-03-23T06:22:29;94504.03;;;5.38;66.78
3968;BME280;9221;42.646;23.380;2024-03-23T06:24:55;94533.00;;;5.69;66.77
3968;BME280;9221;42.646;23.380;2024-03-23T06:27:20;94545.84;;;5.84;66.61
3968;BME280;9221;42.646;23.380;2024-03-23T06:29:46;94546.03;;;6.03;66.42
3968;BME280;9221;42.646;23.380;2024-03-23T06:32:11;94545.38;;;6.22;66.07
3968;BME280;9221;42.646;23.380;2024-03-23T06:34:37;94548.53;;;6.37;66.04
3968;BME280;9221;42.646;23.380;2024-03-23T06:37:02;94541.97;;;6.43;65.50
3968;BME280;9221;42.646;23.380;2024-03-23T06:39:28;94550.59;;;6.55;66.32
3968;BME280;9221;42.646;23.380;2024-03-23T06:41:54;94545.94;;;6.80;66.08
3968;BME280;9221;42.646;23.380;2024-03-23T06:44:20;94554.09;;;7.07;65.34
3968;BME280;9221;42.646;23.380;2024-03-23T06:46:46;94549.34;;;7.22;64.25
3968;BME280;9221;42.646;23.380;2024-03-23T06:49:14;94546.09;;;7.30;64.22
3968;BME280;9221;42.646;23.380;2024-03-23T06:51:39;94541.97;;;7.37;63.96
3968;BME280;9221;42.646;23.380;2024-03-23T06:54:05;94537.03;;;7.44;63.98
3968;BME280;9221;42.646;23.380;2024-03-23T06:56:30;94541.50;;;7.63;64.08
3968;BME280;9221;42.646;23.380;2024-03-23T06:58:57;94544.84;;;7.75;63.44
3968;BME280;9221;42.646;23.380;2024-03-23T07:01:22;94533.16;;;7.89;63.09
3968;BME280;9221;42.646;23.380;2024-03-23T07:03:48;94531.06;;;8.02;62.41
3968;BME280;9221;42.646;23.380;2024-03-23T07:06:13;94535.22;;;8.14;61.81
3968;BME280;9221;42.646;23.380;2024-03-23T07:08:39;94530.00;;;8.34;61.80
3968;BME280;9221;42.646;23.380;2024-03-23T07:11:04;94529.31;;;8.32;61.05
3968;BME280;9221;42.646;23.380;2024-03-23T07:13:30;94530.84;;;8.54;60.03
3968;BME280;9221;42.646;23.380;2024-03-23T07:15:56;94532.25;;;8.49;60.42
3968;BME280;9221;42.646;23.380;2024-03-23T07:18:23;94522.22;;;9.01;60.09
3968;BME280;9221;42.646;23.380;2024-03-23T07:20:54;94528.44;;;9.47;58.32
3968;BME280;9221;42.646;23.380;2024-03-23T07:23:22;94515.59;;;9.90;56.66
3968;BME280;9221;42.646;23.380;2024-03-23T07:26:03;94528.78;;;10.36;55.59
3968;BME280;9221;42.646;23.380;2024-03-23T07:28:33;94535.00;;;10.71;54.19
3968;BME280;9221;42.646;23.380;2024-03-23T07:31:15;94516.13;;;11.02;53.00
3968;BME280;9221;42.646;23.380;2024-03-23T07:33:46;94511.81;;;11.27;51.63
3968;BME280;9221;42.646;23.380;2024-03-23T07:36:11;94511.44;;;11.48;51.02
3968;BME280;9221;42.646;23.380;2024-03-23T07:38:37;94506.75;;;11.77;50.94
3968;BME280;9221;42.646;23.380;2024-03-23T07:41:09;94510.03;;;12.05;50.09
3968;BME280;9221;42.646;23.380;2024-03-23T07:43:37;94506.13;;;12.42;48.83
3968;BME280;9221;42.646;23.380;2024-03-23T07:46:02;94506.47;;;12.64;47.57
3968;BME280;9221;42.646;23.380;2024-03-23T07:48:29;94501.84;;;12.82;46.56
3968;BME280;9221;42.646;23.380;2024-03-23T07:51:05;94506.94;;;13.09;46.37
3968;BME280;9221;42.646;23.380;2024-03-23T07:53:32;94501.44;;;13.35;46.00
3968;BME280;9221;42.646;23.380;2024-03-23T07:56:08;94511.59;;;13.79;45.05
3968;BME280;9221;42.646;23.380;2024-03-23T07:58:34;94495.22;;;14.07;44.13
3968;BME280;9221;42.646;23.380;2024-03-23T08:01:13;94418.97;;;13.86;42.91
3968;BME280;9221;42.646;23.380;2024-03-23T08:03:43;94449.28;;;14.38;42.33
3968;BME280;9221;42.646;23.380;2024-03-23T08:08:39;94496.34;;;14.91;41.82
3968;BME280;9221;42.646;23.380;2024-03-23T08:11:05;94504.53;;;15.04;42.12
3968;BME280;9221;42.646;23.380;2024-03-23T08:13:31;94498.13;;;15.13;41.29
3968;BME280;9221;42.646;23.380;2024-03-23T08:15:58;94496.13;;;15.30;40.89
3968;BME280;9221;42.646;23.380;2024-03-23T08:18:24;94495.16;;;15.46;40.14
3968;BME280;9221;42.646;23.380;2024-03-23T08:20:59;94496.28;;;15.82;40.17
3968;BME280;9221;42.646;23.380;2024-03-23T08:23:25;94493.41;;;15.98;39.06
3968;BME280;9221;42.646;23.380;2024-03-23T08:25:52;94462.69;;;15.66;39.08
3968;BME280;9221;42.646;23.380;2024-03-23T08:28:19;94495.97;;;15.92;39.67
3968;BME280;9221;42.646;23.380;2024-03-23T08:30:44;94492.72;;;16.11;39.64
3968;BME280;9221;42.646;23.380;2024-03-23T08:33:10;94489.06;;;16.12;39.17
3968;BME280;9221;42.646;23.380;2024-03-23T08:35:35;94483.97;;;15.96;38.53
3968;BME280;9221;42.646;23.380;2024-03-23T08:38:01;94487.78;;;15.78;38.53
3968;BME280;9221;42.646;23.380;2024-03-23T08:40:26;94480.75;;;15.85;38.62
3968;BME280;9221;42.646;23.380;2024-03-23T08:42:52;94481.88;;;16.71;38.17
3968;BME280;9221;42.646;23.380;2024-03-23T08:45:17;94474.31;;;16.89;36.64
3968;BME280;9221;42.646;23.380;2024-03-23T08:47:43;94467.25;;;17.38;36.13
3968;BME280;9221;42.646;23.380;2024-03-23T08:50:08;94461.44;;;17.91;35.40
3968;BME280;9221;42.646;23.380;2024-03-23T08:52:34;94455.38;;;18.24;34.73
3968;BME280;9221;42.646;23.380;2024-03-23T08:55:00;94460.44;;;17.64;35.28
3968;BME280;9221;42.646;23.380;2024-03-23T08:57:25;94452.84;;;17.61;35.67
3968;BME280;9221;42.646;23.380;2024-03-23T08:59:51;94458.78;;;17.63;34.58
3968;BME280;9221;42.646;23.380;2024-03-23T09:02:16;94450.50;;;17.86;35.34
3968;BME280;9221;42.646;23.380;2024-03-23T09:04:41;94446.84;;;18.63;33.92
3968;BME280;9221;42.646;23.380;2024-03-23T09:07:07;94433.91;;;19.26;32.67
3968;BME280;9221;42.646;23.380;2024-03-23T09:09:33;94438.13;;;19.81;31.97
3968;BME280;9221;42.646;23.380;2024-03-23T09:11:58;94437.69;;;19.91;32.03
3968;BME280;9221;42.646;23.380;2024-03-23T09:14:24;94434.22;;;19.77;32.27
3968;BME280;9221;42.646;23.380;2024-03-23T09:16:50;94430.03;;;19.02;32.16
3968;BME280;9221;42.646;23.380;2024-03-23T09:19:17;94429.56;;;19.39;32.41
3968;BME280;9221;42.646;23.380;2024-03-23T09:21:42;94421.25;;;19.74;31.58
3968;BME280;9221;42.646;23.380;2024-03-23T09:24:08;94421.66;;;20.61;31.69
3968;BME280;9221;42.646;23.380;2024-03-23T09:26:34;94418.59;;;21.34;30.46
3968;BME280;9221;42.646;23.380;2024-03-23T09:28:59;94412.34;;;21.40;29.24
3968;BME280;9221;42.646;23.380;2024-03-23T09:31:24;94405.78;;;20.92;29.80
3968;BME280;9221;42.646;23.380;2024-03-23T09:33:50;94400.53;;;21.04;29.88
3968;BME280;9221;42.646;23.380;2024-03-23T09:36:15;94394.84;;;20.29;29.81
3968;BME280;9221;42.646;23.380;2024-03-23T09:38:41;94403.09;;;20.92;29.72
3968;BME280;9221;42.646;23.380;2024-03-23T09:41:07;94394.00;;;21.18;29.16
3968;BME280;9221;42.646;23.380;2024-03-23T09:43:34;94393.25;;;21.11;28.77
3968;BME280;9221;42.646;23.380;2024-03-23T09:46:01;94382.69;;;20.91;28.59
3968;BME280;9221;42.646;23.380;2024-03-23T09:48:28;94379.66;;;20.55;28.93
3968;BME280;9221;42.646;23.380;2024-03-23T09:50:53;94379.97;;;20.72;29.88
3968;BME280;9221;42.646;23.380;2024-03-23T09:53:19;94378.78;;;21.56;29.24
3968;BME280;9221;42.646;23.380;2024-03-23T09:55:44;94374.22;;;22.54;27.76
3968;BME280;9221;42.646;23.380;2024-03-23T09:58:15;94368.94;;;23.25;26.65
3968;BME280;9221;42.646;23.380;2024-03-23T10:00:40;94365.03;;;22.97;26.06
3968;BME280;9221;42.646;23.380;2024-03-23T10:03:06;94353.72;;;23.43;26.49
3968;BME280;9221;42.646;23.380;2024-03-23T10:05:32;94362.56;;;24.37;25.28
3968;BME280;9221;42.646;23.380;2024-03-23T10:10:39;94352.78;;;24.30;24.22
3968;BME280;9221;42.646;23.380;2024-03-23T10:13:04;94342.13;;;23.54;24.76
3968;BME280;9221;42.646;23.380;2024-03-23T10:15:33;94344.69;;;24.02;24.91
3968;BME280;9221;42.646;23.380;2024-03-23T10:18:19;94334.09;;;24.12;24.93
3968;BME280;9221;42.646;23.380;2024-03-23T10:23:35;94335.44;;;23.97;24.97
3968;BME280;9221;42.646;23.380;2024-03-23T10:29:01;94321.53;;;22.89;27.71
3968;BME280;9221;42.646;23.380;2024-03-23T10:31:30;94310.78;;;23.77;26.29
3968;BME280;9221;42.646;23.380;2024-03-23T10:33:55;94308.16;;;24.40;25.92
3968;BME280;9221;42.646;23.380;2024-03-23T10:36:24;94315.41;;;24.51;25.09
3968;BME280;9221;42.646;23.380;2024-03-23T10:38:54;94315.78;;;24.43;24.35
3968;BME280;9221;42.646;23.380;2024-03-23T10:41:20;94300.09;;;23.41;25.67
3968;BME280;9221;42.646;23.380;2024-03-23T10:43:46;94293.94;;;23.70;26.32
3968;BME280;9221;42.646;23.380;2024-03-23T10:46:12;94289.09;;;24.41;25.86
3968;BME280;9221;42.646;23.380;2024-03-23T10:48:38;94289.06;;;24.58;24.71
3968;BME280;9221;42.646;23.380;2024-03-23T10:51:05;94287.88;;;24.83;24.02
3968;BME280;9221;42.646;23.380;2024-03-23T10:53:33;94279.59;;;24.73;24.02
3968;BME280;9221;42.646;23.380;2024-03-23T10:56:00;94272.59;;;24.72;24.11
3968;BME280;9221;42.646;23.380;2024-03-23T11:01:02;94255.81;;;24.19;24.01
3968;BME280;9221;42.646;23.380;2024-03-23T11:03:35;94255.91;;;24.75;24.33
3968;BME280;9221;42.646;23.380;2024-03-23T11:06:06;94248.69;;;24.97;23.73
3968;BME280;9221;42.646;23.380;2024-03-23T11:08:39;94244.28;;;24.57;23.64
3968;BME280;9221;42.646;23.380;2024-03-23T11:11:18;94243.06;;;23.85;23.92
3968;BME280;9221;42.646;23.380;2024-03-23T11:13:51;94205.25;;;23.34;24.10
3968;BME280;9221;42.646;23.380;2024-03-23T11:16:27;94226.06;;;23.68;24.99
3968;BME280;9221;42.646;23.380;2024-03-23T11:19:33;94219.31;;;24.79;23.71
3968;BME280;9221;42.646;23.380;2024-03-23T11:21:59;94214.41;;;24.76;23.00
3968;BME280;9221;42.646;23.380;2024-03-23T11:24:24;94213.66;;;23.95;23.91
3968;BME280;9221;42.646;23.380;2024-03-23T11:26:49;94206.72;;;24.50;23.92
3968;BME280;9221;42.646;23.380;2024-03-23T11:29:16;94204.31;;;24.66;23.25
3968;BME280;9221;42.646;23.380;2024-03-23T11:31:53;94198.88;;;24.49;23.17
3968;BME280;9221;42.646;23.380;2024-03-23T11:34:19;94203.84;;;24.57;23.94
3968;BME280;9221;42.646;23.380;2024-03-23T11:36:46;94187.38;;;25.15;24.07
3968;BME280;9221;42.646;23.380;2024-03-23T11:39:16;94190.53;;;25.29;22.94
3968;BME280;9221;42.646;23.380;2024-03-23T11:41:52;94176.91;;;24.96;22.68
3968;BME280;9221;42.646;23.380;2024-03-23T11:44:21;94153.00;;;24.83;22.22
3968;BME280;9221;42.646;23.380;2024-03-23T11:46:48;94173.00;;;25.31;22.79
3968;BME280;9221;42.646;23.380;2024-03-23T11:49:23;94165.47;;;25.83;22.10
3968;BME280;9221;42.646;23.380;2024-03-23T11:51:49;94167.41;;;26.15;21.89
3968;BME280;9221;42.646;23.380;2024-03-23T11:54:15;94160.53;;;26.02;21.66
3968;BME280;9221;42.646;23.380;2024-03-23T11:56:41;94155.69;;;26.42;21.24
3968;BME280;9221;42.646;23.380;2024-03-23T11:59:35;94146.59;;;26.58;21.06
3968;BME280;9221;42.646;23.380;2024-03-23T12:02:11;94133.03;;;26.53;21.14
3968;BME280;9221;42.646;23.380;2024-03-23T12:04:39;94119.88;;;26.24;21.53
3968;BME280;9221;42.646;23.380;2024-03-23T12:07:10;94093.69;;;25.92;21.58
3968;BME280;9221;42.646;23.380;2024-03-23T12:09:35;94117.25;;;26.34;21.08
3968;BME280;9221;42.646;23.380;2024-03-23T12:12:08;94109.38;;;26.76;20.61
3968;BME280;9221;42.646;23.380;2024-03-23T12:14:34;94109.94;;;26.83;21.16
3968;BME280;9221;42.646;23.380;2024-03-23T12:17:12;94112.00;;;26.60;20.97
3968;BME280;9221;42.646;23.380;2024-03-23T12:19:38;94100.56;;;26.48;21.20
3968;BME280;9221;42.646;23.380;2024-03-23T12:22:10;94108.06;;;26.89;20.49
3968;BME280;9221;42.646;23.380;2024-03-23T12:24:35;94100.88;;;27.20;20.81
3968;BME280;9221;42.646;23.380;2024-03-23T12:27:03;94101.00;;;27.56;20.53
3968;BME280;9221;42.646;23.380;2024-03-23T12:29:33;94097.47;;;27.81;20.05
3968;BME280;9221;42.646;23.380;2024-03-23T12:32:00;94096.16;;;28.05;20.23
3968;BME280;9221;42.646;23.380;2024-03-23T12:34:26;94093.97;;;27.96;19.87
3968;BME280;9221;42.646;23.380;2024-03-23T12:36:52;94098.31;;;27.61;19.71
3968;BME280;9221;42.646;23.380;2024-03-23T12:39:17;94087.97;;;27.58;19.67
3968;BME280;9221;42.646;23.380;2024-03-23T12:41:44;94078.78;;;27.49;20.16
3968;BME280;9221;42.646;23.380;2024-03-23T12:44:09;94083.66;;;27.52;19.88
3968;BME280;9221;42.646;23.380;2024-03-23T12:46:37;94068.47;;;27.46;20.20
3968;BME280;9221;42.646;23.380;2024-03-23T12:49:03;94068.97;;;27.27;19.57
3968;BME280;9221;42.646;23.380;2024-03-23T12:51:29;94053.28;;;26.61;20.95
3968;BME280;9221;42.646;23.380;2024-03-23T12:53:54;94055.97;;;26.50;21.08
3968;BME280;9221;42.646;23.380;2024-03-23T12:56:19;94044.06;;;26.04;20.86
3968;BME280;9221;42.646;23.380;2024-03-23T12:58:45;94042.44;;;25.38;20.37
3968;BME280;9221;42.646;23.380;2024-03-23T13:01:13;94047.44;;;24.96;21.30
3968;BME280;9221;42.646;23.380;2024-03-23T13:03:39;94032.00;;;24.70;21.12
3968;BME280;9221;42.646;23.380;2024-03-23T13:06:06;94021.97;;;24.87;21.12
3968;BME280;9221;42.646;23.380;2024-03-23T13:08:33;94027.75;;;25.28;20.20
3968;BME280;9221;42.646;23.380;2024-03-23T13:10:58;94030.97;;;25.25;20.83
3968;BME280;9221;42.646;23.380;2024-03-23T13:13:24;94023.47;;;25.32;20.80
3968;BME280;9221;42.646;23.380;2024-03-23T13:15:52;94021.97;;;25.42;20.49
3968;BME280;9221;42.646;23.380;2024-03-23T13:18:17;94025.00;;;25.23;19.75
3968;BME280;9221;42.646;23.380;2024-03-23T13:20:44;94007.09;;;24.84;19.40
3968;BME280;9221;42.646;23.380;2024-03-23T13:23:09;93999.28;;;24.39;19.70
3968;BME280;9221;42.646;23.380;2024-03-23T13:25:35;94007.03;;;23.91;20.29
3968;BME280;9221;42.646;23.380;2024-03-23T13:28:01;94005.22;;;23.45;20.40
3968;BME280;9221;42.646;23.380;2024-03-23T13:30:27;93977.06;;;23.02;21.16
3968;BME280;9221;42.646;23.380;2024-03-23T13:32:53;94011.56;;;22.93;21.27
3968;BME280;9221;42.646;23.380;2024-03-23T13:35:18;94003.03;;;22.68;21.29
3968;BME280;9221;42.646;23.380;2024-03-23T13:37:44;93995.44;;;22.24;21.34
3968;BME280;9221;42.646;23.380;2024-03-23T13:40:10;93992.13;;;21.81;21.62
3968;BME280;9221;42.646;23.380;2024-03-23T13:42:36;93986.91;;;21.62;22.03
3968;BME280;9221;42.646;23.380;2024-03-23T13:45:02;93974.41;;;21.33;21.67
3968;BME280;9221;42.646;23.380;2024-03-23T13:47:28;93977.50;;;21.29;22.31
3968;BME280;9221;42.646;23.380;2024-03-23T13:49:53;93981.28;;;21.28;22.86
3968;BME280;9221;42.646;23.380;2024-03-23T13:52:19;93982.06;;;21.29;22.30
3968;BME280;9221;42.646;23.380;2024-03-23T13:54:48;93982.66;;;21.19;22.01
3968;BME280;9221;42.646;23.380;2024-03-23T13:57:13;93958.72;;;21.06;21.66
3968;BME280;9221;42.646;23.380;2024-03-23T13:59:39;93971.91;;;20.95;21.46
3968;BME280;9221;42.646;23.380;2024-03-23T14:02:05;93958.94;;;20.81;21.54
3968;BME280;9221;42.646;23.380;2024-03-23T14:04:30;93972.56;;;20.79;21.89
3968;BME280;9221;42.646;23.380;2024-03-23T14:06:56;93963.44;;;20.68;21.94
3968;BME280;9221;42.646;23.380;2024-03-23T14:09:21;93962.00;;;20.66;22.40
3968;BME280;9221;42.646;23.380;2024-03-23T14:11:50;93948.19;;;20.50;22.53
3968;BME280;9221;42.646;23.380;2024-03-23T14:14:16;93954.19;;;20.34;22.54
3968;BME280;9221;42.646;23.380;2024-03-23T14:16:42;93949.28;;;20.31;23.60
3968;BME280;9221;42.646;23.380;2024-03-23T14:19:08;93948.25;;;20.13;24.15
3968;BME280;9221;42.646;23.380;2024-03-23T14:21:33;93954.88;;;20.10;23.89